Wetterstation Vordersexau
Wetterdaten: Woche 16.10.17 - 22.10.17 (KW42)
Datum Zeit Temp. A. Feuchte A. Luftdruck Regen Wind Richtung Taupunkt Windchill Windben
16.10.2017 00:00 10,6 C 82 % 1023,2 hPa 0,0 l/m 0,0 km/h O-NO 7,7 C 10,6 C 0,0 km/h
16.10.2017 01:00 10,5 C 83 % 1023,4 hPa 0,0 l/m 0,0 km/h O 7,7 C 10,5 C 0,0 km/h
16.10.2017 02:00 9,9 C 83 % 1023,5 hPa 0,0 l/m 0,0 km/h O-SO 7,2 C 9,9 C 0,0 km/h
16.10.2017 03:00 9,5 C 83 % 1023,2 hPa 0,0 l/m 0,0 km/h N-NO 6,8 C 9,5 C 0,0 km/h
16.10.2017 04:00 9,4 C 84 % 1023,1 hPa 0,0 l/m 0,0 km/h NO 6,8 C 9,4 C 0,0 km/h
16.10.2017 05:00 8,9 C 84 % 1022,9 hPa 0,0 l/m 0,0 km/h NO 6,3 C 8,9 C 0,0 km/h
16.10.2017 06:00 7,5 C 84 % 1022,8 hPa 0,0 l/m 0,0 km/h N 5,0 C 7,5 C 0,0 km/h
16.10.2017 07:00 6,1 C 84 % 1022,8 hPa 0,0 l/m 0,0 km/h N-NO 3,6 C 6,1 C 0,0 km/h
16.10.2017 08:00 7,6 C 83 % 1023,2 hPa 0,0 l/m 0,0 km/h N-NO 4,9 C 7,6 C 0,0 km/h
16.10.2017 09:00 14,8 C 83 % 1023,3 hPa 0,0 l/m 0,0 km/h N 11,9 C 14,8 C 0,0 km/h
16.10.2017 10:00 20,3 C 64 % 1023,4 hPa 0,0 l/m 0,0 km/h W 13,3 C 20,3 C 0,0 km/h
16.10.2017 11:00 23,3 C 56 % 1023,0 hPa 0,0 l/m 0,0 km/h W 14,0 C 23,3 C 0,0 km/h
16.10.2017 12:00 25,9 C 51 % 1022,9 hPa 0,0 l/m 0,0 km/h SW 15,0 C 25,9 C 0,0 km/h
16.10.2017 13:00 27,9 C 45 % 1022,5 hPa 0,0 l/m 0,0 km/h N-NO 14,8 C 27,9 C 0,0 km/h
16.10.2017 14:00 31,2 C 37 % 1021,6 hPa 0,0 l/m 0,0 km/h O-NO 14,8 C 31,2 C 0,0 km/h
16.10.2017 15:00 35,3 C 31 % 1021,3 hPa 0,0 l/m 0,0 km/h O-NO 15,6 C 35,3 C 0,0 km/h
16.10.2017 16:00 36,6 C 32 % 1020,9 hPa 0,0 l/m 0,0 km/h O-SO 17,2 C 36,6 C 0,0 km/h
16.10.2017 17:00 31,2 C 37 % 1020,9 hPa 0,0 l/m 0,0 km/h O-SO 14,8 C 31,2 C 0,0 km/h
16.10.2017 18:00 17,9 C 58 % 1020,9 hPa 0,0 l/m 0,0 km/h O 9,5 C 17,9 C 0,0 km/h
16.10.2017 19:00 15,1 C 69 % 1021,2 hPa 0,0 l/m 0,0 km/h O 9,5 C 15,1 C 0,0 km/h
16.10.2017 20:00 12,8 C 74 % 1021,4 hPa 0,0 l/m 0,0 km/h O-NO 8,3 C 12,8 C 0,0 km/h
16.10.2017 21:00 12,2 C 78 % 1021,4 hPa 0,0 l/m 0,0 km/h NO 8,5 C 12,2 C 0,0 km/h
16.10.2017 22:00 11,1 C 80 % 1021,7 hPa 0,0 l/m 0,0 km/h O-NO 7,8 C 11,1 C 0,0 km/h
16.10.2017 23:00 9,9 C 82 % 1021,8 hPa 0,0 l/m 0,0 km/h O-NO 7,0 C 9,9 C 0,0 km/h
17.10.2017 00:00 8,6 C 83 % 1021,9 hPa 0,0 l/m 0,0 km/h O-NO 5,9 C 8,6 C 0,0 km/h
17.10.2017 01:00 8,6 C 84 % 1022,0 hPa 0,0 l/m 0,0 km/h O-NO 6,1 C 8,6 C 0,0 km/h
17.10.2017 02:00 8,9 C 84 % 1021,8 hPa 0,0 l/m 0,0 km/h O 6,3 C 8,9 C 0,0 km/h
17.10.2017 03:00 8,1 C 83 % 1021,4 hPa 0,0 l/m 0,0 km/h O-NO 5,4 C 8,1 C 0,0 km/h
17.10.2017 04:00 6,8 C 84 % 1021,3 hPa 0,0 l/m 0,0 km/h O-NO 4,3 C 6,8 C 0,0 km/h
17.10.2017 05:00 5,8 C 84 % 1021,3 hPa 0,0 l/m 0,0 km/h O-NO 3,3 C 5,8 C 0,0 km/h
17.10.2017 06:00 6,1 C 84 % 1021,1 hPa 0,0 l/m 0,0 km/h NO 3,6 C 6,1 C 0,0 km/h
17.10.2017 07:00 5,9 C 83 % 1021,0 hPa 0,0 l/m 0,0 km/h N 3,2 C 5,9 C 0,0 km/h
17.10.2017 08:00 7,4 C 82 % 1021,3 hPa 0,0 l/m 0,0 km/h N 4,5 C 7,4 C 0,0 km/h
17.10.2017 09:00 14,4 C 79 % 1021,4 hPa 0,0 l/m 0,0 km/h NW 10,8 C 14,4 C 0,0 km/h
17.10.2017 10:00 19,7 C 61 % 1021,3 hPa 0,0 l/m 0,0 km/h W-NW 12,0 C 19,7 C 0,0 km/h
17.10.2017 11:00 25,8 C 48 % 1020,6 hPa 0,0 l/m 0,0 km/h W-NW 13,9 C 25,8 C 0,0 km/h
17.10.2017 12:00 27,2 C 41 % 1019,8 hPa 0,0 l/m 0,0 km/h N-NW 12,8 C 27,2 C 0,0 km/h
17.10.2017 13:00 27,8 C 37 % 1018,8 hPa 0,0 l/m 0,0 km/h W 11,8 C 27,8 C 0,0 km/h
17.10.2017 14:00 29,5 C 30 % 1017,7 hPa 0,0 l/m 0,0 km/h S-SO 10,1 C 29,5 C 0,0 km/h
17.10.2017 15:00 32,9 C 27 % 1017,1 hPa 0,0 l/m 0,0 km/h W-SW 11,4 C 32,9 C 0,0 km/h
17.10.2017 16:00 33,1 C 24 % 1016,8 hPa 0,0 l/m 0,0 km/h S 9,8 C 33,1 C 0,0 km/h
17.10.2017 17:00 30,9 C 30 % 1016,3 hPa 0,0 l/m 0,0 km/h O-SO 11,3 C 30,9 C 0,0 km/h
17.10.2017 18:00 16,0 C 52 % 1016,5 hPa 0,0 l/m 0,0 km/h O 6,2 C 16,0 C 0,0 km/h
17.10.2017 19:00 12,5 C 63 % 1016,6 hPa 0,0 l/m 0,0 km/h O 5,7 C 12,5 C 0,0 km/h
17.10.2017 20:00 10,9 C 68 % 1016,4 hPa 0,0 l/m 0,0 km/h O-NO 5,2 C 10,9 C 0,0 km/h
17.10.2017 21:00 10,3 C 72 % 1016,1 hPa 0,0 l/m 0,0 km/h SO 5,5 C 10,3 C 0,0 km/h
17.10.2017 22:00 9,9 C 74 % 1016,0 hPa 0,0 l/m 0,0 km/h N-NO 5,5 C 9,9 C 0,0 km/h
17.10.2017 23:00 9,7 C 75 % 1015,8 hPa 0,0 l/m 0,0 km/h O-SO 5,5 C 9,7 C 0,0 km/h
18.10.2017 00:00 7,8 C 77 % 1015,5 hPa 0,0 l/m 0,0 km/h O-SO 4,0 C 7,8 C 0,0 km/h
18.10.2017 01:00 7,0 C 80 % 1015,5 hPa 0,0 l/m 0,0 km/h O-SO 3,8 C 7,0 C 0,0 km/h
18.10.2017 02:00 6,2 C 81 % 1015,5 hPa 0,0 l/m 0,0 km/h O-SO 3,2 C 6,2 C 0,0 km/h
18.10.2017 03:00 6,3 C 81 % 1015,1 hPa 0,0 l/m 0,0 km/h O 3,3 C 6,3 C 0,0 km/h
18.10.2017 04:00 5,3 C 82 % 1014,9 hPa 0,0 l/m 0,0 km/h NO 2,5 C 5,3 C 0,0 km/h
18.10.2017 05:00 5,8 C 82 % 1014,4 hPa 0,0 l/m 0,0 km/h NO 3,0 C 5,8 C 0,0 km/h
18.10.2017 06:00 5,2 C 82 % 1014,4 hPa 0,0 l/m 0,0 km/h NO 2,4 C 5,2 C 0,0 km/h
18.10.2017 07:00 4,8 C 83 % 1014,3 hPa 0,0 l/m 0,0 km/h O-SO 2,2 C 4,8 C 0,0 km/h
18.10.2017 08:00 7,9 C 83 % 1014,5 hPa 0,0 l/m 7,1 km/h O-SO 5,2 C 7,3 C 4,0 km/h
18.10.2017 09:00 14,6 C 67 % 1014,3 hPa 0,0 l/m 1,9 km/h O-SO 8,5 C 14,6 C 1,1 km/h
18.10.2017 10:00 22,1 C 51 % 1014,1 hPa 0,0 l/m 0,0 km/h N-NO 11,5 C 22,1 C 0,0 km/h
18.10.2017 11:00 26,3 C 37 % 1013,7 hPa 0,0 l/m 0,0 km/h W 10,4 C 26,3 C 0,0 km/h
18.10.2017 12:00 26,5 C 39 % 1013,3 hPa 0,0 l/m 11,0 km/h W 11,4 C 25,7 C 6,1 km/h
18.10.2017 13:00 24,9 C 41 % 1012,7 hPa 0,0 l/m 8,4 km/h W-SW 10,7 C 24,4 C 4,7 km/h
18.10.2017 14:00 27,2 C 37 % 1012,1 hPa 0,0 l/m 0,0 km/h S-SO 11,2 C 27,2 C 0,0 km/h
18.10.2017 15:00 31,4 C 30 % 1011,6 hPa 0,0 l/m 0,0 km/h W 11,7 C 31,4 C 0,0 km/h
18.10.2017 16:00 31,8 C 28 % 1011,2 hPa 0,0 l/m 0,0 km/h W 11,0 C 31,8 C 0,0 km/h
18.10.2017 17:00 28,8 C 35 % 1011,3 hPa 0,0 l/m 0,0 km/h O-SO 11,8 C 28,8 C 0,0 km/h
18.10.2017 18:00 15,4 C 58 % 1011,3 hPa 0,0 l/m 0,0 km/h O-SO 7,2 C 15,4 C 0,0 km/h
18.10.2017 19:00 12,7 C 70 % 1011,6 hPa 0,0 l/m 0,0 km/h S-SO 7,4 C 12,7 C 0,0 km/h
18.10.2017 20:00 11,6 C 73 % 1011,4 hPa 0,0 l/m 19,4 km/h O-SO 6,9 C 5,5 C 10,8 km/h
18.10.2017 21:00 11,3 C 75 % 1011,3 hPa 0,0 l/m 0,0 km/h O-SO 7,0 C 11,3 C 0,0 km/h
18.10.2017 22:00 10,8 C 76 % 1011,6 hPa 0,0 l/m 0,0 km/h O-SO 6,7 C 10,8 C 0,0 km/h
18.10.2017 23:00 9,3 C 79 % 1012,2 hPa 0,0 l/m 0,0 km/h O-SO 5,8 C 9,3 C 0,0 km/h
19.10.2017 00:00 8,5 C 80 % 1012,3 hPa 0,0 l/m 0,0 km/h O-NO 5,3 C 8,5 C 0,0 km/h
19.10.2017 01:00 8,6 C 82 % 1011,8 hPa 0,0 l/m 0,0 km/h O-SO 5,7 C 8,6 C 0,0 km/h
19.10.2017 02:00 7,9 C 82 % 1011,8 hPa 0,0 l/m 0,0 km/h O-SO 5,0 C 7,9 C 0,0 km/h
19.10.2017 03:00 7,9 C 83 % 1011,6 hPa 0,0 l/m 0,0 km/h O-SO 5,2 C 7,9 C 0,0 km/h
19.10.2017 04:00 7,6 C 83 % 1011,4 hPa 0,0 l/m 0,0 km/h O 4,9 C 7,6 C 0,0 km/h
19.10.2017 05:00 7,0 C 84 % 1011,2 hPa 0,0 l/m 0,0 km/h O 4,5 C 7,0 C 0,0 km/h
19.10.2017 06:00 7,8 C 83 % 1011,0 hPa 0,0 l/m 0,0 km/h NO 5,1 C 7,8 C 0,0 km/h
19.10.2017 07:00 9,1 C 83 % 1011,0 hPa 0,0 l/m 0,0 km/h O 6,4 C 9,1 C 0,0 km/h
19.10.2017 08:00 9,8 C 83 % 1012,1 hPa 0,0 l/m 0,0 km/h NW 7,1 C 9,8 C 0,0 km/h
19.10.2017 09:00 11,6 C 82 % 1012,2 hPa 0,0 l/m 0,0 km/h SO 8,6 C 11,6 C 0,0 km/h
19.10.2017 10:00 13,4 C 79 % 1012,2 hPa 0,0 l/m 0,0 km/h SO 9,8 C 13,4 C 0,0 km/h
19.10.2017 11:00 15,8 C 73 % 1012,3 hPa 0,0 l/m 0,0 km/h NO 11,0 C 15,8 C 0,0 km/h
19.10.2017 12:00 18,0 C 66 % 1012,3 hPa 0,0 l/m 0,0 km/h S 11,6 C 18,0 C 0,0 km/h
19.10.2017 13:00 24,1 C 52 % 1011,1 hPa 0,0 l/m 0,0 km/h SO 13,6 C 24,1 C 0,0 km/h
19.10.2017 14:00 28,3 C 45 % 1010,3 hPa 0,0 l/m 0,0 km/h SW 15,2 C 28,3 C 0,0 km/h
19.10.2017 15:00 31,1 C 33 % 1009,9 hPa 0,0 l/m 0,0 km/h W-NW 12,9 C 31,1 C 0,0 km/h
19.10.2017 16:00 32,3 C 28 % 1009,3 hPa 0,0 l/m 0,0 km/h W-NW 11,4 C 32,3 C 0,0 km/h
19.10.2017 17:00 21,7 C 48 % 1009,4 hPa 0,0 l/m 0,0 km/h W-NW 10,2 C 21,7 C 0,0 km/h
19.10.2017 18:00 14,6 C 64 % 1009,6 hPa 0,0 l/m 0,0 km/h O-NO 7,9 C 14,6 C 0,0 km/h
19.10.2017 19:00 13,8 C 68 % 1009,8 hPa 0,0 l/m 0,0 km/h SO 8,0 C 13,8 C 0,0 km/h
19.10.2017 20:00 13,3 C 71 % 1010,0 hPa 0,0 l/m 1,9 km/h O-SO 8,2 C 13,3 C 1,1 km/h
19.10.2017 21:00 11,5 C 76 % 1010,2 hPa 0,0 l/m 0,0 km/h O-SO 7,4 C 11,5 C 0,0 km/h
19.10.2017 22:00 10,7 C 78 % 1010,2 hPa 0,0 l/m 0,0 km/h O 7,0 C 10,7 C 0,0 km/h
19.10.2017 23:00 9,6 C 80 % 1010,4 hPa 0,0 l/m 0,0 km/h O 6,3 C 9,6 C 0,0 km/h
20.10.2017 00:00 9,9 C 81 % 1010,5 hPa 0,0 l/m 0,0 km/h O 6,8 C 9,9 C 0,0 km/h
20.10.2017 01:00 10,4 C 81 % 1010,9 hPa 0,0 l/m 0,0 km/h O-SO 7,3 C 10,4 C 0,0 km/h
20.10.2017 02:00 11,1 C 81 % 1010,9 hPa 0,0 l/m 0,0 km/h O 8,0 C 11,1 C 0,0 km/h
20.10.2017 03:00 11,2 C 81 % 1011,1 hPa 0,0 l/m 0,0 km/h O-SO 8,1 C 11,2 C 0,0 km/h
20.10.2017 04:00 11,1 C 81 % 1010,7 hPa 0,0 l/m 0,0 km/h O-SO 8,0 C 11,1 C 0,0 km/h
20.10.2017 05:00 10,9 C 81 % 1010,9 hPa 0,0 l/m 0,0 km/h O-SO 7,8 C 10,9 C 0,0 km/h
20.10.2017 06:00 10,9 C 82 % 1011,0 hPa 0,0 l/m 0,0 km/h O-NO 7,9 C 10,9 C 0,0 km/h
20.10.2017 07:00 11,5 C 82 % 1010,9 hPa 0,0 l/m 0,0 km/h O-SO 8,5 C 11,5 C 0,0 km/h
20.10.2017 08:00 11,8 C 82 % 1011,2 hPa 0,0 l/m 0,0 km/h O-SO 8,8 C 11,8 C 0,0 km/h
20.10.2017 09:00 15,2 C 80 % 1012,0 hPa 0,0 l/m 0,0 km/h SW 11,8 C 15,2 C 0,0 km/h
20.10.2017 10:00 20,1 C 53 % 1012,8 hPa 0,0 l/m 2,6 km/h SW 10,2 C 20,1 C 1,4 km/h
20.10.2017 11:00 19,1 C 51 % 1013,6 hPa 0,0 l/m 13,0 km/h S 8,7 C 16,7 C 7,2 km/h
20.10.2017 12:00 18,5 C 55 % 1013,6 hPa 0,0 l/m 11,0 km/h S 9,3 C 16,6 C 6,1 km/h
20.10.2017 13:00 17,3 C 64 % 1014,0 hPa 0,0 l/m 8,4 km/h S 10,4 C 16,3 C 4,7 km/h
20.10.2017 14:00 15,5 C 76 % 1014,0 hPa 0,0 l/m 9,7 km/h S 11,3 C 13,8 C 5,4 km/h
20.10.2017 15:00 16,9 C 71 % 1014,0 hPa 0,0 l/m 0,0 km/h S 11,6 C 16,9 C 0,0 km/h
20.10.2017 16:00 19,8 C 63 % 1014,0 hPa 0,0 l/m 11,0 km/h S-SO 12,5 C 18,1 C 6,1 km/h
20.10.2017 17:00 17,3 C 70 % 1014,0 hPa 0,0 l/m 5,2 km/h S-SO 11,8 C 17,3 C 2,9 km/h
20.10.2017 18:00 16,9 C 72 % 1014,4 hPa 0,0 l/m 2,6 km/h S 11,8 C 16,9 C 1,4 km/h
20.10.2017 19:00 16,8 C 72 % 1014,1 hPa 0,0 l/m 0,0 km/h S-SO 11,7 C 16,8 C 0,0 km/h
20.10.2017 20:00 16,7 C 73 % 1014,4 hPa 0,0 l/m 0,0 km/h SO 11,8 C 16,7 C 0,0 km/h
20.10.2017 21:00 15,9 C 76 % 1014,1 hPa 0,0 l/m 0,0 km/h SO 11,7 C 15,9 C 0,0 km/h
20.10.2017 22:00 16,0 C 76 % 1014,1 hPa 0,0 l/m 0,0 km/h SO 11,8 C 16,0 C 0,0 km/h
20.10.2017 23:00 15,4 C 77 % 1014,0 hPa 0,0 l/m 0,0 km/h O-NO 11,4 C 15,4 C 0,0 km/h
21.10.2017 00:00 14,5 C 80 % 1014,4 hPa 0,0 l/m 0,0 km/h O-NO 11,1 C 14,5 C 0,0 km/h
21.10.2017 01:00 13,9 C 82 % 1014,5 hPa 0,0 l/m 0,0 km/h N-NO 10,9 C 13,9 C 0,0 km/h
21.10.2017 02:00 13,8 C 82 % 1014,7 hPa 0,0 l/m 0,0 km/h NO 10,8 C 13,8 C 0,0 km/h
21.10.2017 03:00 13,8 C 82 % 1014,5 hPa 0,0 l/m 0,0 km/h NO 10,8 C 13,8 C 0,0 km/h
21.10.2017 04:00 13,9 C 82 % 1014,2 hPa 0,0 l/m 0,0 km/h N-NO 10,9 C 13,9 C 0,0 km/h
21.10.2017 05:00 13,8 C 81 % 1014,2 hPa 0,0 l/m 0,0 km/h N-NO 10,6 C 13,8 C 0,0 km/h
21.10.2017 06:00 13,4 C 80 % 1014,2 hPa 0,0 l/m 0,0 km/h N-NO 10,0 C 13,4 C 0,0 km/h
21.10.2017 07:00 13,2 C 79 % 1014,3 hPa 0,0 l/m 0,0 km/h S-SW 9,6 C 13,2 C 0,0 km/h
21.10.2017 08:00 15,3 C 80 % 1014,5 hPa 0,0 l/m 0,0 km/h SW 11,9 C 15,3 C 0,0 km/h
21.10.2017 09:00 18,1 C 79 % 1014,8 hPa 0,0 l/m 3,9 km/h S-SW 14,4 C 18,1 C 2,2 km/h
21.10.2017 10:00 23,2 C 62 % 1014,4 hPa 0,0 l/m 2,6 km/h SW 15,5 C 23,2 C 1,4 km/h
21.10.2017 11:00 22,8 C 58 % 1014,0 hPa 0,0 l/m 10,4 km/h S 14,1 C 21,6 C 5,8 km/h
21.10.2017 12:00 21,9 C 59 % 1013,4 hPa 0,0 l/m 0,0 km/h W 13,5 C 21,9 C 0,0 km/h
21.10.2017 13:00 21,8 C 60 % 1013,1 hPa 0,0 l/m 5,2 km/h W 13,7 C 21,8 C 2,9 km/h
21.10.2017 14:00 21,8 C 60 % 1012,7 hPa 0,0 l/m 0,0 km/h S-SW 13,7 C 21,8 C 0,0 km/h
21.10.2017 15:00 20,8 C 59 % 1012,7 hPa 0,0 l/m 0,0 km/h S-SW 12,5 C 20,8 C 0,0 km/h
21.10.2017 16:00 20,4 C 59 % 1012,3 hPa 0,0 l/m 1,3 km/h S-SW 12,1 C 20,4 C 0,7 km/h
21.10.2017 17:00 19,3 C 62 % 1012,4 hPa 0,0 l/m 12,3 km/h N 11,8 C 17,1 C 6,8 km/h
21.10.2017 18:00 14,1 C 78 % 1014,2 hPa 0,0 l/m 0,0 km/h N-NO 10,3 C 14,1 C 0,0 km/h
21.10.2017 19:00 12,8 C 81 % 1016,2 hPa 1,0 l/m 0,0 km/h S-SO 9,6 C 12,8 C 0,0 km/h
21.10.2017 20:00 11,4 C 83 % 1016,6 hPa 1,6 l/m 0,0 km/h SW 8,6 C 11,4 C 0,0 km/h
21.10.2017 21:00 10,9 C 83 % 1016,6 hPa 1,0 l/m 0,0 km/h S 8,1 C 10,9 C 0,0 km/h
21.10.2017 22:00 10,8 C 81 % 1016,7 hPa 0,5 l/m 2,6 km/h S-SW 7,7 C 10,8 C 1,4 km/h
21.10.2017 23:00 10,9 C 83 % 1016,6 hPa 0,0 l/m 0,0 km/h SW 8,1 C 10,9 C 0,0 km/h
22.10.2017 00:00 11,5 C 81 % 1016,7 hPa 0,0 l/m 7,8 km/h SW 8,4 C 10,6 C 4,3 km/h
22.10.2017 01:00 11,9 C 78 % 1016,6 hPa 0,0 l/m 3,9 km/h W-SW 8,2 C 11,9 C 2,2 km/h
22.10.2017 02:00 12,1 C 77 % 1016,6 hPa 0,0 l/m 18,1 km/h SW 8,2 C 6,6 C 10,1 km/h
22.10.2017 03:00 12,1 C 76 % 1016,2 hPa 0,0 l/m 12,3 km/h W 8,0 C 8,8 C 6,8 km/h
22.10.2017 04:00 11,6 C 77 % 1016,3 hPa 0,0 l/m 20,7 km/h W-SW 7,7 C 5,1 C 11,5 km/h
22.10.2017 05:00 10,8 C 78 % 1015,9 hPa 0,0 l/m 17,5 km/h S-SO 7,1 C 5,2 C 9,7 km/h
22.10.2017 06:00 10,2 C 78 % 1016,3 hPa 0,0 l/m 22,0 km/h S 6,5 C 2,9 C 12,2 km/h
22.10.2017 07:00 10,1 C 76 % 1016,2 hPa 0,0 l/m 15,6 km/h S-SW 6,1 C 5,0 C 8,6 km/h
22.10.2017 08:00 10,1 C 76 % 1016,7 hPa 0,0 l/m 0,0 km/h W-SW 6,1 C 10,1 C 0,0 km/h
22.10.2017 09:00 10,5 C 76 % 1016,9 hPa 0,0 l/m 11,0 km/h SW 6,5 C 7,6 C 6,1 km/h
22.10.2017 10:00 11,8 C 71 % 1017,0 hPa 0,0 l/m 7,8 km/h SW 6,7 C 10,9 C 4,3 km/h
22.10.2017 11:00 14,5 C 65 % 1016,7 hPa 0,0 l/m 20,7 km/h S-SW 8,0 C 8,9 C 11,5 km/h
22.10.2017 12:00 15,5 C 58 % 1015,9 hPa 0,0 l/m 6,5 km/h SW 7,3 C 15,5 C 3,6 km/h
22.10.2017 13:00 13,1 C 63 % 1015,6 hPa 0,0 l/m 22,7 km/h W-SW 6,2 C 6,6 C 12,6 km/h
22.10.2017 14:00 12,3 C 64 % 1015,2 hPa 0,0 l/m 20,7 km/h S-SW 5,7 C 6,1 C 11,5 km/h
22.10.2017 15:00 12,3 C 68 % 1015,4 hPa 0,0 l/m 1,3 km/h S-SW 6,6 C 12,3 C 0,7 km/h
22.10.2017 16:00 10,8 C 72 % 1015,6 hPa 0,0 l/m 0,0 km/h SW 6,0 C 10,8 C 0,0 km/h
22.10.2017 17:00 10,5 C 74 % 1015,7 hPa 0,0 l/m 0,0 km/h W-NW 6,1 C 10,5 C 0,0 km/h
22.10.2017 18:00 9,3 C 77 % 1016,5 hPa 0,0 l/m 0,0 km/h W-NW 5,5 C 9,3 C 0,0 km/h
22.10.2017 19:00 8,8 C 81 % 1017,0 hPa 0,5 l/m 0,0 km/h SW 5,7 C 8,8 C 0,0 km/h
22.10.2017 20:00 8,8 C 82 % 1017,3 hPa 0,0 l/m 12,3 km/h SW 5,9 C 5,0 C 6,8 km/h
22.10.2017 21:00 8,4 C 83 % 1017,4 hPa 0,0 l/m 3,2 km/h S-SW 5,7 C 8,4 C 1,8 km/h
22.10.2017 22:00 8,1 C 83 % 1017,6 hPa 0,5 l/m 5,8 km/h W 5,4 C 8,1 C 3,2 km/h
22.10.2017 23:00 7,8 C 83 % 1018,1 hPa 0,0 l/m 0,0 km/h S-SO 5,1 C 7,8 C 0,0 km/h
Min-Datum _ 18.10.17 17.10.17 19.10.17 - 16.10.17 - 18.10.17 22.10.17 16.10.17
_ Min-Zeit 07:53 16:53 16:53 - 00:53 - 07:53 06:53 00:53
Minimum _ 4,8 C 24 % 1009,3 hPa - 0,0 km/h - 2,2 C 2,9 C 0,0 km/h
Max-Datum _ 16.10.17 16.10.17 16.10.17 21.10.17 22.10.17 - 16.10.17 16.10.17 22.10.17
_ Max-Zeit 16:53 04:53 02:53 20:53 13:53 - 16:53 16:53 13:53
Maximum _ 36,6 C 84 % 1023,5 hPa 1,6 l/m 22,7 km/h
W-SW
- 17,2 C 36,6 C 12,6 km/h
W-SW
Durchschnitt _ 14,8 C 70 % 1015,6 hPa #5,2 l/m 2,3 km/h O-SO 8,6 C 14,4 C 1,3 km/h
www.sexauwetter.de